Ocean City, NJ

5:17 AM EDT on April 18, 2015 (GMT -0400)
Ocean City, NJ | | Change Station
CLOSE
Current Station
Personal Weather Station
Location: Ocean City, NJ
Elevation: 20 ft
Nearby Weather Stations

Elev 20 ft 39.24 °N, 74.62 °W | Updated 5 minutes ago

Overcast
Overcast
55.9 °F
Feels Like 55.9 °F
N
2.2
Wind Variable Wind from WNW

Today
High -- | Low -- °F
--% Chance of Precip.
Yesterday
High -- | Low -- °F
Precip. -- in
6:17 AM 7:38 PM
Waning Crescent, 0% visible
Pressure 29.96 in
Visibility 3.0 miles
Clouds
Dew Point 56 °F
Humidity 99%
Rainfall 0.00 in
Snow Depth Not available.
UV Not available.
Pollen 9.60 out of 12
Air Quality Not available.
Flu Activity Regional
SPECI KACY 180913Z AUTO 00000KT 3SM BR 13/12 A2996 RMK AO2 T01330122 TSNO $

More Conditions Fewer Conditions

Pressure 29.96 in
Visibility 3.0 miles
Clouds
Dew Point 56 °F
Humidity 99%
Rainfall 0.00 in
Snow Depth Not available.
UV Not available.
Pollen 9.60 out of 12
Air Quality Not available.
Flu Activity Regional
SPECI KACY 180913Z AUTO 00000KT 3SM BR 13/12 A2996 RMK AO2 T01330122 TSNO $

More Conditions Fewer Conditions

Nowcast | as of 4:02 am EDT on April 18, 2015

Between now and daybreak, patchy fog is expected in southern New Jersey, central and southern Delaware, and in parts of northeastern Maryland. The fog is anticipated to be shallow but it will reduce the visibility to a half mile or less in spots. If you will be driving be prepared for reduced visibility and leave plenty of room between your vehicle and the one ahead of you.

×

10-Day Weather Forecast

Almanac

Astronomy

Apr. 18, 2015 Rise Set
Actual Time
Civil Twilight
Nautical Twilight
Astronomical Twilight
Moon
Length of Visible Light
Length of Day
Tomorrow will be .
, % of the Moon is Illuminated

Today's Extremes

State Highs State Lows

Community

WunderPhotos

Upload Photos

1,814,350 photos uploaded!

WunderBlogs® & News

Nearby

Air Quality

  Air Quality AQ Index Pollutant
Not available.

Snow Depth

Station Depth Elevation

Earthquake Activity

City Distance Mag. Time & Date
Minimum magnitude displayed is 2.5.

Coastal Water Temperatures

Place Temperature

Stations

Nearby Weather Stations

Station Location Temp. Windchill Dew Point Humidity Wind Precip. Elev Updated Type